Time;durP1;ratioP1;P1;durP2;ratioP2;P2;SDS_P1;SDS_P2;PMS_P1;PMS_P2;Temp;Humidity;BMP_temperature;BMP_pressure;BME280_temperature;BME280_humidity;BME280_pressure;Samples;Min_cycle;Max_cycle;Signal;HPM_P1;HPM_P2
2022/10/26 00:01:05;;;;;;;;;;;;;;;20.01;59.47;101336.72;5011419;28;2872;-59
2022/10/26 00:03:32;;;;;;;;;;;;;;;20.01;59.43;101341.72;5012127;28;2929;-59
2022/10/26 00:06:02;;;;;;;;;;;;;;;20.00;59.46;101334.50;5000213;28;2957;-59
2022/10/26 00:08:29;;;;;;;;;;;;;;;19.99;59.12;101333.00;5005345;28;3058;-59
2022/10/26 00:10:56;;;;;;;;;;;;;;;19.98;58.74;101334.38;5011876;28;2920;-59
2022/10/26 00:13:22;;;;;;;;;;;;;;;19.98;58.73;101340.88;5008790;28;2930;-59
2022/10/26 00:15:48;;;;;;;;;;;;;;;19.98;58.85;101337.25;5012000;28;3371;-60
2022/10/26 00:18:15;;;;;;;;;;;;;;;19.97;59.13;101336.50;5010258;28;2536;-59
2022/10/26 00:20:41;;;;;;;;;;;;;;;19.96;59.06;101337.88;5014914;28;2857;-59
2022/10/26 00:23:08;;;;;;;;;;;;;;;19.96;59.20;101337.13;5013753;28;2796;-59
2022/10/26 00:25:34;;;;;;;;;;;;;;;19.96;59.20;101349.38;5013833;28;2762;-59
2022/10/26 00:28:00;;;;;;;;;;;;;;;19.95;58.85;101336.41;5009269;28;2925;-59
2022/10/26 00:30:27;;;;;;;;;;;;;;;19.94;59.09;101349.25;5014283;28;2879;-59
2022/10/26 00:32:53;;;;;;;;;;;;;;;19.94;58.57;101357.88;5015985;28;3241;-59
2022/10/26 00:35:19;;;;;;;;;;;;;;;19.94;58.72;101355.00;5012131;28;2798;-59
2022/10/26 00:37:54;;;;;;;;;;;;;;;19.94;58.22;101360.03;5007068;28;2814;-59
2022/10/26 00:40:21;;;;;;;;;;;;;;;19.93;58.59;101359.28;5010234;28;2825;-59
2022/10/26 00:42:47;;;;;;;;;;;;;;;19.92;58.66;101363.53;5009558;28;2921;-59
2022/10/26 00:45:17;;;;;;;;;;;;;;;19.91;58.53;101356.28;5010225;28;2661;-59
2022/10/26 00:47:44;;;;;;;;;;;;;;;19.91;58.56;101356.28;5010249;28;3204;-59
2022/10/26 00:50:12;;;;;;;;;;;;;;;19.91;58.57;101350.53;5004271;28;2547;-59
2022/10/26 00:52:38;;;;;;;;;;;;;;;19.93;57.99;101347.78;5010410;28;2518;-59
2022/10/26 00:55:05;;;;;;;;;;;;;;;19.99;58.42;101350.97;5012251;28;2285;-59
2022/10/26 00:57:31;;;;;;;;;;;;;;;19.98;59.19;101355.25;5011314;28;2331;-59
2022/10/26 00:59:58;;;;;;;;;;;;;;;19.97;58.63;101353.72;5011406;28;2370;-59
2022/10/26 01:02:24;;;;;;;;;;;;;;;20.01;57.95;101353.97;5011817;28;2617;-61
2022/10/26 01:04:50;;;;;;;;;;;;;;;20.00;57.18;101351.75;5011577;28;2845;-59
2022/10/26 01:07:17;;;;;;;;;;;;;;;19.97;57.30;101347.97;5025423;28;2489;-59
2022/10/26 01:09:43;;;;;;;;;;;;;;;19.93;57.34;101341.25;5005985;28;2722;-59
2022/10/26 01:12:10;;;;;;;;;;;;;;;19.89;57.49;101341.81;5011890;28;2845;-59
2022/10/26 01:14:36;;;;;;;;;;;;;;;19.86;57.57;101340.94;5005801;28;2976;-59
2022/10/26 01:17:21;;;;;;;;;;;;;;;19.85;57.45;101342.31;5013391;28;2508;-59
2022/10/26 01:20:04;;;;;;;;;;;;;;;19.83;56.92;101338.56;5002642;28;2515;-59
2022/10/26 01:22:41;;;;;;;;;;;;;;;19.80;57.26;101334.84;5011769;28;2724;-59
2022/10/26 01:25:11;;;;;;;;;;;;;;;19.83;57.60;101338.56;5012247;28;2431;-59
2022/10/26 01:27:38;;;;;;;;;;;;;;;19.80;57.26;101334.84;5008965;28;2832;-59
2022/10/26 01:30:21;;;;;;;;;;;;;;;19.80;57.16;101339.84;5021104;28;2409;-59
2022/10/26 01:33:06;;;;;;;;;;;;;;;19.78;56.64;101331.84;5006178;28;2867;-59
2022/10/26 01:35:41;;;;;;;;;;;;;;;19.76;57.26;101333.88;5009728;28;2887;-59
2022/10/26 01:38:13;;;;;;;;;;;;;;;19.76;56.92;101331.00;5016397;28;2517;-59
2022/10/26 01:40:42;;;;;;;;;;;;;;;19.73;57.07;101332.28;5010727;28;3028;-59
2022/10/26 01:43:08;;;;;;;;;;;;;;;19.75;56.70;101323.78;5041632;28;3414;-59
2022/10/26 01:45:36;;;;;;;;;;;;;;;19.74;56.70;101319.38;5012124;28;2837;-59
2022/10/26 01:48:02;;;;;;;;;;;;;;;19.74;56.92;101328.00;5021607;28;1680;-59
2022/10/26 01:50:29;;;;;;;;;;;;;;;19.72;56.63;101319.25;5008528;28;2474;-59
2022/10/26 01:52:55;;;;;;;;;;;;;;;19.72;57.41;101311.38;5025100;28;2771;-59
2022/10/26 01:55:38;;;;;;;;;;;;;;;19.71;57.01;101326.41;5009760;28;2734;-59
2022/10/26 01:58:08;;;;;;;;;;;;;;;19.68;56.57;101314.03;5023186;28;2556;-59
2022/10/26 02:00:35;;;;;;;;;;;;;;;19.69;56.75;101315.53;5023884;28;2397;-59
2022/10/26 02:03:20;;;;;;;;;;;;;;;19.67;56.14;101306.78;5013079;28;2720;-59
2022/10/26 02:06:05;;;;;;;;;;;;;;;19.67;56.41;101310.38;5008635;28;2392;-59
2022/10/26 02:08:42;;;;;;;;;;;;;;;19.66;56.55;101313.91;5013464;28;2518;-59
2022/10/26 02:11:15;;;;;;;;;;;;;;;19.65;55.93;101318.16;5014123;28;2390;-59
2022/10/26 02:13:42;;;;;;;;;;;;;;;19.63;56.41;101304.44;5014083;28;2787;-59
2022/10/26 02:16:19;;;;;;;;;;;;;;;19.63;56.63;101310.19;5006967;28;2318;-59
2022/10/26 02:18:48;;;;;;;;;;;;;;;19.63;56.18;101309.41;5015156;28;2722;-59
2022/10/26 02:21:15;;;;;;;;;;;;;;;19.61;56.13;101312.94;5010453;28;2788;-59
2022/10/26 02:23:41;;;;;;;;;;;;;;;19.61;55.89;101324.44;5010703;28;2663;-59
2022/10/26 02:26:08;;;;;;;;;;;;;;;19.61;56.56;101321.56;5012268;28;2857;-59
2022/10/26 02:28:38;;;;;;;;;;;;;;;19.60;56.30;101314.28;5009559;28;2661;-59
2022/10/26 02:31:04;;;;;;;;;;;;;;;19.60;56.26;101316.44;5011344;28;2585;-59
2022/10/26 02:33:32;;;;;;;;;;;;;;;19.60;56.10;101311.44;5013193;28;2423;-59
2022/10/26 02:35:59;;;;;;;;;;;;;;;19.60;56.25;101317.16;5011005;28;2257;-59
2022/10/26 02:38:25;;;;;;;;;;;;;;;19.60;56.28;101317.16;5008596;28;2433;-59
2022/10/26 02:40:52;;;;;;;;;;;;;;;19.65;56.73;101323.91;5004627;28;3001;-60
2022/10/26 02:43:20;;;;;;;;;;;;;;;19.69;55.98;101309.06;5017270;28;3245;-59
2022/10/26 02:45:51;;;;;;;;;;;;;;;19.73;56.23;101315.03;5012767;28;3054;-59
2022/10/26 02:48:17;;;;;;;;;;;;;;;19.78;56.74;101313.88;5032065;28;3053;-59
2022/10/26 02:50:55;;;;;;;;;;;;;;;19.80;58.37;101311.13;5017512;28;2516;-58
2022/10/26 02:53:24;;;;;;;;;;;;;;;19.83;59.01;101316.31;5015052;28;2857;-59
2022/10/26 02:55:50;;;;;;;;;;;;;;;19.82;58.72;101314.84;5027711;28;2690;-59
2022/10/26 02:58:23;;;;;;;;;;;;;;;19.84;58.90;101311.34;5013649;28;2783;-59
2022/10/26 03:00:50;;;;;;;;;;;;;;;19.83;59.19;101309.84;5011257;28;2912;-59
2022/10/26 03:03:16;;;;;;;;;;;;;;;19.83;59.58;101319.19;5013617;28;2668;-59
2022/10/26 03:05:43;;;;;;;;;;;;;;;19.83;59.47;101312.72;5010805;28;2840;-59
2022/10/26 03:08:09;;;;;;;;;;;;;;;19.83;59.12;101315.59;5013190;28;2795;-59
2022/10/26 03:10:38;;;;;;;;;;;;;;;19.84;58.92;101312.09;5010034;28;2944;-59
2022/10/26 03:13:04;;;;;;;;;;;;;;;19.86;60.06;101317.22;5010403;28;2580;-59
2022/10/26 03:15:30;;;;;;;;;;;;;;;19.87;60.48;101321.56;5014771;28;2753;-59
2022/10/26 03:17:57;;;;;;;;;;;;;;;19.87;60.07;101315.81;5012606;28;2961;-59
2022/10/26 03:20:23;;;;;;;;;;;;;;;19.88;60.09;101318.06;5010375;28;2907;-59
2022/10/26 03:22:49;;;;;;;;;;;;;;;19.89;60.63;101313.06;5023552;28;2783;-59
2022/10/26 03:25:15;;;;;;;;;;;;;;;19.89;60.67;101313.06;5011330;28;2844;-59
2022/10/26 03:27:42;;;;;;;;;;;;;;;19.90;60.59;101317.41;5011205;28;2883;-59
2022/10/26 03:30:08;;;;;;;;;;;;;;;19.89;60.76;101318.81;5012816;28;2863;-59
2022/10/26 03:32:35;;;;;;;;;;;;;;;19.90;60.73;101313.81;5016184;28;2638;-59
2022/10/26 03:35:01;;;;;;;;;;;;;;;19.89;60.90;101307.31;5016147;28;3159;-59
2022/10/26 03:37:27;;;;;;;;;;;;;;;19.90;61.23;101308.78;5016764;28;2849;-59
2022/10/26 03:39:54;;;;;;;;;;;;;;;19.90;60.70;101313.81;5010854;28;2973;-59
2022/10/26 03:42:20;;;;;;;;;;;;;;;19.90;61.12;101308.78;5013617;28;3170;-59
2022/10/26 03:44:47;;;;;;;;;;;;;;;19.88;60.64;101318.06;5016001;28;3121;-59
2022/10/26 03:47:13;;;;;;;;;;;;;;;19.90;61.06;101308.78;5019192;28;1715;-59
2022/10/26 03:49:39;;;;;;;;;;;;;;;19.92;60.86;101313.91;5011339;28;2884;-59
2022/10/26 03:52:06;;;;;;;;;;;;;;;19.91;60.86;101316.06;5015170;28;2485;-59
2022/10/26 03:54:32;;;;;;;;;;;;;;;19.94;60.70;101314.78;5010100;28;3211;-59
2022/10/26 03:56:58;;;;;;;;;;;;;;;19.94;60.02;101325.53;5018190;28;2779;-59
2022/10/26 03:59:25;;;;;;;;;;;;;;;19.98;61.08;101309.25;5006053;28;2822;-59
2022/10/26 04:01:51;;;;;;;;;;;;;;;19.99;61.56;101321.50;5011423;28;2809;-59
2022/10/26 04:04:23;;;;;;;;;;;;;;;19.99;61.06;101315.75;5015802;28;2912;-59
2022/10/26 04:06:49;;;;;;;;;;;;;;;19.98;61.27;101320.75;5015559;28;2820;-59
2022/10/26 04:09:15;;;;;;;;;;;;;;;19.97;61.02;101330.75;5013106;28;2856;-59
2022/10/26 04:11:42;;;;;;;;;;;;;;;19.98;61.25;101328.63;5003713;28;2602;-59
2022/10/26 04:14:08;;;;;;;;;;;;;;;19.96;61.05;101326.38;5011974;28;2968;-59
2022/10/26 04:16:34;;;;;;;;;;;;;;;19.96;60.98;101317.75;5016334;28;2901;-59
2022/10/26 04:19:00;;;;;;;;;;;;;;;19.97;61.46;101330.75;5012800;28;3484;-59
2022/10/26 04:21:27;;;;;;;;;;;;;;;19.97;61.61;101330.75;5012146;28;2782;-59
2022/10/26 04:23:53;;;;;;;;;;;;;;;19.97;61.80;101330.75;5016872;28;2688;-59
2022/10/26 04:26:19;;;;;;;;;;;;;;;19.98;61.44;101322.88;5013916;28;2923;-59
2022/10/26 04:28:46;;;;;;;;;;;;;;;19.98;61.62;101323.63;5003906;28;2783;-59
2022/10/26 04:31:12;;;;;;;;;;;;;;;20.00;61.29;101320.88;5014122;28;2892;-59
2022/10/26 04:33:39;;;;;;;;;;;;;;;20.01;61.58;101328.09;5014440;28;2870;-59
2022/10/26 04:36:05;;;;;;;;;;;;;;;19.99;61.47;101327.97;5011840;28;2936;-59
2022/10/26 04:38:31;;;;;;;;;;;;;;;20.00;61.33;101329.50;5014114;28;2739;-59
2022/10/26 04:40:58;;;;;;;;;;;;;;;19.99;61.19;101322.22;5014458;28;3256;-59
2022/10/26 04:43:24;;;;;;;;;;;;;;;19.98;61.01;101332.25;5015102;28;2794;-59
2022/10/26 04:45:53;;;;;;;;;;;;;;;20.00;61.54;101329.50;5014260;28;2905;-59
2022/10/26 04:48:20;;;;;;;;;;;;;;;19.99;61.28;101330.13;5011000;28;2933;-59
2022/10/26 04:50:46;;;;;;;;;;;;;;;19.99;61.04;101333.00;5008459;28;3072;-59
2022/10/26 04:53:13;;;;;;;;;;;;;;;19.73;56.69;101329.41;5008900;28;2826;-59
2022/10/26 04:55:39;;;;;;;;;;;;;;;19.44;58.43;101336.34;5008138;28;2952;-54
2022/10/26 04:58:05;;;;;;;;;;;;;;;19.85;59.31;101333.69;5005478;28;2920;-59
2022/10/26 05:00:32;;;;;;;;;;;;;;;19.85;57.72;101319.31;5003068;28;2847;-58
2022/10/26 05:02:59;;;;;;;;;;;;;;;19.21;55.39;101320.69;5012606;28;2913;-58
2022/10/26 05:05:25;;;;;;;;;;;;;;;19.71;56.76;101320.66;5011717;28;2725;-58
2022/10/26 05:07:55;;;;;;;;;;;;;;;19.97;60.83;101325.00;5014446;28;2876;-58
2022/10/26 05:10:21;;;;;;;;;;;;;;;20.06;60.51;101311.81;5013970;28;2696;-58
2022/10/26 05:12:51;;;;;;;;;;;;;;;20.09;60.75;101317.06;5013508;28;2962;-58
2022/10/26 05:15:17;;;;;;;;;;;;;;;20.14;61.24;101308.66;5014447;28;2798;-58
2022/10/26 05:17:43;;;;;;;;;;;;;;;20.17;61.19;101305.25;5016333;28;1663;-58
2022/10/26 05:20:12;;;;;;;;;;;;;;;20.18;61.29;101305.97;5015585;28;2931;-58
2022/10/26 05:22:39;;;;;;;;;;;;;;;20.18;61.31;101321.13;5014915;28;2889;-58
2022/10/26 05:25:05;;;;;;;;;;;;;;;20.19;61.93;101311.09;5014778;28;2691;-58
2022/10/26 05:27:32;;;;;;;;;;;;;;;20.22;61.75;101309.81;5014786;28;2778;-58
2022/10/26 05:29:58;;;;;;;;;;;;;;;20.24;61.91;101317.81;5013816;28;2825;-58
2022/10/26 05:32:25;;;;;;;;;;;;;;;20.25;62.18;101313.56;5015661;28;2929;-58
2022/10/26 05:34:51;;;;;;;;;;;;;;;20.26;61.98;101315.78;5014327;28;2787;-58
2022/10/26 05:37:17;;;;;;;;;;;;;;;20.27;62.14;101316.53;5013566;28;2715;-58
2022/10/26 05:39:44;;;;;;;;;;;;;;;20.29;61.99;101305.16;5015116;28;2647;-58
2022/10/26 05:42:10;;;;;;;;;;;;;;;20.30;62.22;101315.28;5015507;28;2731;-58
2022/10/26 05:44:36;;;;;;;;;;;;;;;20.34;62.31;101320.50;5016622;28;2802;-58
2022/10/26 05:47:02;;;;;;;;;;;;;;;20.36;62.50;101318.47;5012549;28;2986;-58
2022/10/26 05:49:29;;;;;;;;;;;;;;;20.36;62.29;101318.47;5014877;28;2860;-58
2022/10/26 05:51:55;;;;;;;;;;;;;;;20.39;62.49;101322.97;5015469;28;2834;-58
2022/10/26 05:54:22;;;;;;;;;;;;;;;20.40;62.61;101318.69;5013515;28;2916;-58
2022/10/26 05:56:48;;;;;;;;;;;;;;;20.39;62.52;101322.97;5017061;28;1654;-58
2022/10/26 05:59:14;;;;;;;;;;;;;;;20.40;62.84;101318.69;5012229;28;3003;-58
2022/10/26 06:01:50;;;;;;;;;;;;;;;20.42;62.36;101326.69;5011225;28;2824;-58
2022/10/26 06:04:22;;;;;;;;;;;;;;;20.42;62.50;101332.44;5015138;28;2917;-58
2022/10/26 06:06:50;;;;;;;;;;;;;;;20.42;62.07;101336.06;5012367;28;2904;-58
2022/10/26 06:09:17;;;;;;;;;;;;;;;20.43;62.33;101337.56;5013172;28;2852;-57
2022/10/26 06:11:43;;;;;;;;;;;;;;;20.44;61.79;101341.91;5015823;28;1557;-58
2022/10/26 06:14:10;;;;;;;;;;;;;;;20.46;61.60;101342.03;5015214;28;2739;-58
2022/10/26 06:16:43;;;;;;;;;;;;;;;20.45;61.59;101340.53;5014428;28;3155;-58
2022/10/26 06:19:13;;;;;;;;;;;;;;;20.46;61.52;101333.41;5014461;28;2763;-57
2022/10/26 06:21:46;;;;;;;;;;;;;;;20.49;61.87;101332.13;5013518;28;2690;-58
2022/10/26 06:24:16;;;;;;;;;;;;;;;20.47;61.84;101340.63;5014230;28;2983;-58
2022/10/26 06:27:00;;;;;;;;;;;;;;;20.49;61.78;101337.88;5027116;28;2799;-58
2022/10/26 06:29:35;;;;;;;;;;;;;;;20.50;62.20;101344.38;5015033;28;2719;-58
2022/10/26 06:32:01;;;;;;;;;;;;;;;20.49;62.10;101343.63;5028846;28;2756;-57
2022/10/26 06:34:30;;;;;;;;;;;;;;;20.50;61.82;101348.00;5013584;28;2946;-58
2022/10/26 06:36:57;;;;;;;;;;;;;;;20.51;62.00;101352.38;5012653;28;2811;-58
2022/10/26 06:39:23;;;;;;;;;;;;;;;20.53;62.03;101345.25;5022213;28;3109;-58
2022/10/26 06:41:49;;;;;;;;;;;;;;;20.56;61.82;101352.59;5014340;28;2844;-58
2022/10/26 06:44:21;;;;;;;;;;;;;;;20.56;61.86;101355.47;5003198;28;3008;-58
2022/10/26 06:46:48;;;;;;;;;;;;;;;20.57;61.57;101348.34;5013028;28;2894;-58
2022/10/26 06:49:19;;;;;;;;;;;;;;;20.59;61.54;101348.47;5021583;28;3205;-58
2022/10/26 06:51:48;;;;;;;;;;;;;;;20.61;61.56;101354.31;5013001;28;3010;-58
2022/10/26 06:54:17;;;;;;;;;;;;;;;20.60;61.01;101356.47;5025541;28;2807;-58
2022/10/26 06:56:44;;;;;;;;;;;;;;;20.60;61.84;101359.34;5027001;28;2794;-61
2022/10/26 06:59:28;;;;;;;;;;;;;;;20.61;61.40;101354.31;5014719;28;1869;-66
2022/10/26 07:01:55;;;;;;;;;;;;;;;20.57;61.90;101351.22;5013189;28;2954;-64
2022/10/26 07:04:21;;;;;;;;;;;;;;;20.56;61.95;101346.84;5013195;28;2866;-64
2022/10/26 07:06:47;;;;;;;;;;;;;;;20.58;62.26;101352.72;5013115;28;2896;-66
2022/10/26 07:09:14;;;;;;;;;;;;;;;20.54;61.14;101349.59;5012778;28;2691;-66
2022/10/26 07:11:40;;;;;;;;;;;;;;;20.57;61.76;101354.09;5014375;28;2898;-66
2022/10/26 07:14:07;;;;;;;;;;;;;;;20.47;61.64;101360.78;5011971;28;2916;-66
2022/10/26 07:16:33;;;;;;;;;;;;;;;20.51;61.53;101363.88;5017416;28;1846;-66
2022/10/26 07:19:00;;;;;;;;;;;;;;;20.55;61.45;101356.84;5018647;28;1689;-66
2022/10/26 07:21:26;;;;;;;;;;;;;;;20.58;61.52;101355.59;5018183;28;1972;-68
2022/10/26 07:23:55;;;;;;;;;;;;;;;20.59;61.56;101359.97;5018038;28;2940;-66
2022/10/26 07:26:22;;;;;;;;;;;;;;;20.58;60.91;101358.50;5020014;28;1609;-65
2022/10/26 07:28:49;;;;;;;;;;;;;;;20.54;61.16;101364.00;5014872;28;2935;-66
2022/10/26 07:31:15;;;;;;;;;;;;;;;20.53;60.96;101357.50;5018901;28;1589;-65
2022/10/26 07:33:43;;;;;;;;;;;;;;;20.59;61.44;101363.63;5015596;28;2948;-64
2022/10/26 07:36:10;;;;;;;;;;;;;;;20.60;61.25;101358.59;5014017;28;3004;-65
2022/10/26 07:38:36;;;;;;;;;;;;;;;20.60;61.22;101362.22;5015373;28;3269;-65
2022/10/26 07:41:03;;;;;;;;;;;;;;;20.59;61.33;101362.84;5019347;28;2343;-65
2022/10/26 07:43:29;;;;;;;;;;;;;;;20.57;61.20;101371.38;5017010;28;2735;-70
2022/10/26 07:45:55;;;;;;;;;;;;;;;20.61;61.54;101366.56;5019296;28;1605;-71
2022/10/26 07:48:21;;;;;;;;;;;;;;;20.62;61.48;101367.34;5015938;28;2833;-69
2022/10/26 07:50:48;;;;;;;;;;;;;;;20.60;61.30;101358.59;5018326;28;2400;-70
2022/10/26 07:53:14;;;;;;;;;;;;;;;20.61;61.72;101366.56;5017770;28;2806;-70
2022/10/26 07:55:40;;;;;;;;;;;;;;;20.64;61.80;101364.56;5016106;28;2694;-68
2022/10/26 07:58:07;;;;;;;;;;;;;;;20.62;61.31;101364.47;5018006;28;2771;-66
2022/10/26 08:00:33;;;;;;;;;;;;;;;20.64;61.29;101370.34;5017598;28;2774;-65
2022/10/26 08:03:01;;;;;;;;;;;;;;;20.67;61.51;101366.16;5017207;28;2857;-65
2022/10/26 08:05:27;;;;;;;;;;;;;;;20.70;61.57;101359.13;5018001;28;2685;-72
2022/10/26 08:07:54;;;;;;;;;;;;;;;20.72;62.15;101370.75;5018240;28;2797;-67
2022/10/26 08:10:20;;;;;;;;;;;;;;;20.72;61.90;101370.75;5017437;28;2634;-63
2022/10/26 08:12:46;;;;;;;;;;;;;;;20.72;61.55;101376.50;5018505;28;1605;-64
2022/10/26 08:15:13;;;;;;;;;;;;;;;20.73;61.73;101378.00;5014458;28;2762;-64
2022/10/26 08:17:39;;;;;;;;;;;;;;;20.71;61.61;101375.75;5014902;28;2897;-67
2022/10/26 08:20:06;;;;;;;;;;;;;;;20.77;61.46;101383.97;5018223;28;1975;-65
2022/10/26 08:22:32;;;;;;;;;;;;;;;20.42;60.02;101382.09;5015897;28;2877;-66
2022/10/26 08:24:58;;;;;;;;;;;;;;;20.21;60.39;101370.88;5016721;28;3818;-65
2022/10/26 08:27:25;;;;;;;;;;;;;;;20.47;61.74;101372.28;5015343;28;2838;-65
2022/10/26 08:29:51;;;;;;;;;;;;;;;20.62;61.94;101378.84;5018407;28;1799;-67
2022/10/26 08:32:17;;;;;;;;;;;;;;;20.70;62.10;101379.28;5014639;28;2725;-62
2022/10/26 08:34:44;;;;;;;;;;;;;;;20.81;62.64;101378.41;5009864;28;2453;-60
2022/10/26 08:37:10;;;;;;;;;;;;;;;20.83;62.25;101378.53;5015101;28;2911;-65
2022/10/26 08:39:36;;;;;;;;;;;;;;;20.82;61.92;101379.94;5017106;28;1801;-66
2022/10/26 08:42:11;;;;;;;;;;;;;;;20.78;62.36;101373.22;5012742;28;2845;-69
2022/10/26 08:44:42;;;;;;;;;;;;;;;20.72;62.10;101370.75;5017716;28;2822;-66
2022/10/26 08:47:25;;;;;;;;;;;;;;;20.69;62.56;101372.03;5012279;28;2849;-62
2022/10/26 08:49:58;;;;;;;;;;;;;;;20.71;62.18;101375.03;5017393;28;2557;-64
2022/10/26 08:52:27;;;;;;;;;;;;;;;20.67;62.61;101377.69;5014310;28;2895;-65
2022/10/26 08:54:54;;;;;;;;;;;;;;;20.67;62.59;101375.53;5017303;28;3202;-59
2022/10/26 08:57:20;;;;;;;;;;;;;;;20.58;61.89;101375.75;5013288;28;3388;-59
2022/10/26 08:59:49;;;;;;;;;;;;;;;20.12;60.06;101369.66;5016335;28;3055;-63
2022/10/26 09:02:15;;;;;;;;;;;;;;;20.16;59.47;101381.41;5029961;28;2798;-64
2022/10/26 09:04:42;;;;;;;;;;;;;;;20.33;59.42;101360.00;5011914;28;3075;-64
2022/10/26 09:07:14;;;;;;;;;;;;;;;20.44;60.15;101367.81;5015361;28;2625;-64
2022/10/26 09:09:40;;;;;;;;;;;;;;;20.50;60.10;101367.38;5011596;28;3272;-63
2022/10/26 09:12:06;;;;;;;;;;;;;;;20.55;59.66;101374.09;5012091;28;2785;-64
2022/10/26 09:14:39;;;;;;;;;;;;;;;20.56;59.96;101364.09;5017042;28;1605;-63
2022/10/26 09:17:07;;;;;;;;;;;;;;;20.63;60.56;101372.44;5033601;28;2827;-63
2022/10/26 09:19:33;;;;;;;;;;;;;;;20.63;60.97;101368.81;5018158;28;1635;-64
2022/10/26 09:22:03;;;;;;;;;;;;;;;20.61;61.00;101380.97;5011951;28;2883;-63
2022/10/26 09:24:37;;;;;;;;;;;;;;;20.64;61.16;101379.69;5022956;28;2753;-64
2022/10/26 09:27:22;;;;;;;;;;;;;;;20.63;61.21;101374.56;5014951;28;2940;-64
2022/10/26 09:29:48;;;;;;;;;;;;;;;20.64;61.17;101381.84;5014587;28;1803;-64
2022/10/26 09:32:19;;;;;;;;;;;;;;;20.61;61.63;101372.31;5029805;28;2835;-64
2022/10/26 09:34:47;;;;;;;;;;;;;;;20.63;61.01;101368.81;5015013;28;2925;-63
2022/10/26 09:37:15;;;;;;;;;;;;;;;20.61;60.98;101378.09;5022829;28;3087;-63
2022/10/26 09:39:45;;;;;;;;;;;;;;;20.62;61.00;101379.59;5013356;28;1680;-64
2022/10/26 09:42:15;;;;;;;;;;;;;;;20.66;61.07;101381.94;5011625;28;2989;-63
2022/10/26 09:44:44;;;;;;;;;;;;;;;20.67;61.39;101386.31;5015565;28;1833;-64
2022/10/26 09:47:25;;;;;;;;;;;;;;;20.64;60.87;101382.59;5044379;28;2953;-64
2022/10/26 09:49:53;;;;;;;;;;;;;;;20.63;60.98;101380.34;5021102;28;2911;-63
2022/10/26 09:52:19;;;;;;;;;;;;;;;20.62;61.22;101373.84;5022843;28;2911;-64
2022/10/26 09:54:46;;;;;;;;;;;;;;;20.62;61.02;101378.84;5015644;28;2966;-63
2022/10/26 09:57:13;;;;;;;;;;;;;;;20.62;61.12;101385.34;5015748;28;3003;-63
2022/10/26 09:59:39;;;;;;;;;;;;;;;20.63;61.09;101386.81;5012300;28;2864;-64
2022/10/26 10:02:25;;;;;;;;;;;;;;;20.64;61.25;101376.81;5002401;28;2892;-65
2022/10/26 10:04:51;;;;;;;;;;;;;;;20.69;61.16;101381.41;5012799;28;2813;-65
2022/10/26 10:07:17;;;;;;;;;;;;;;;20.48;59.79;101387.44;5013563;28;1706;-59
2022/10/26 10:09:44;;;;;;;;;;;;;;;20.09;59.53;101388.94;5012633;28;2983;-68
2022/10/26 10:12:17;;;;;;;;;;;;;;;20.20;59.42;101389.47;5021739;28;3636;-68
2022/10/26 10:14:55;;;;;;;;;;;;;;;20.28;58.82;101387.06;5014244;28;2525;-68
2022/10/26 10:17:21;;;;;;;;;;;;;;;20.29;58.96;101389.31;5046039;28;3047;-69
2022/10/26 10:19:47;;;;;;;;;;;;;;;20.24;59.05;101392.59;5015374;28;2827;-68
2022/10/26 10:22:14;;;;;;;;;;;;;;;20.23;58.95;101385.34;5012960;28;2862;-69
2022/10/26 10:24:52;;;;;;;;;;;;;;;20.24;58.86;101392.59;5011106;28;2905;-70
2022/10/26 10:27:19;;;;;;;;;;;;;;;20.25;58.53;101394.09;5016067;28;2598;-69
2022/10/26 10:29:45;;;;;;;;;;;;;;;20.26;58.47;101392.69;5011430;28;2786;-70
2022/10/26 10:32:19;;;;;;;;;;;;;;;20.27;58.41;101391.31;5013017;28;2448;-71
2022/10/26 10:34:49;;;;;;;;;;;;;;;20.25;58.07;101385.47;5011011;28;3020;-65
2022/10/26 10:37:29;;;;;;;;;;;;;;;20.25;58.30;101377.59;5011547;28;3059;-71
2022/10/26 10:39:59;;;;;;;;;;;;;;;20.27;57.65;101374.06;5008730;28;2790;-70
2022/10/26 10:42:26;;;;;;;;;;;;;;;20.26;57.60;101370.44;5027484;28;2652;-70
2022/10/26 10:44:52;;;;;;;;;;;;;;;20.27;57.68;101376.94;5012584;28;2521;-62
2022/10/26 10:47:23;;;;;;;;;;;;;;;20.15;57.99;101373.38;5025439;28;1545;-62
2022/10/26 10:49:50;;;;;;;;;;;;;;;20.00;57.90;101375.47;5017273;28;2801;-63
2022/10/26 10:52:23;;;;;;;;;;;;;;;19.96;58.05;101378.13;5016265;28;2935;-63
2022/10/26 10:54:50;;;;;;;;;;;;;;;19.88;57.52;101374.78;5017637;28;2276;-65
2022/10/26 10:57:28;;;;;;;;;;;;;;;20.01;57.32;101379.09;5023840;28;2900;-64
2022/10/26 10:59:58;;;;;;;;;;;;;;;20.21;56.73;101376.63;5018558;28;2895;-65
2022/10/26 11:02:43;;;;;;;;;;;;;;;20.33;56.75;101377.28;5016236;28;2865;-65
2022/10/26 11:05:18;;;;;;;;;;;;;;;20.38;57.30;101378.97;5016505;28;3139;-65
2022/10/26 11:07:56;;;;;;;;;;;;;;;20.42;57.15;101376.34;5032890;28;2913;-65
2022/10/26 11:10:24;;;;;;;;;;;;;;;20.44;56.98;101387.94;5013836;28;2753;-64
2022/10/26 11:12:52;;;;;;;;;;;;;;;20.46;57.26;101381.56;5013722;28;2786;-64
2022/10/26 11:15:19;;;;;;;;;;;;;;;20.51;57.90;101375.38;5013783;28;2878;-63
2022/10/26 11:17:51;;;;;;;;;;;;;;;20.55;57.88;101374.88;5028103;28;3049;-63
2022/10/26 11:20:18;;;;;;;;;;;;;;;20.58;58.06;101375.75;5014913;28;2827;-63
2022/10/26 11:22:50;;;;;;;;;;;;;;;20.59;57.88;101380.09;5026538;28;2847;-63
2022/10/26 11:25:19;;;;;;;;;;;;;;;20.60;58.19;101375.88;5014950;28;2634;-65
2022/10/26 11:27:46;;;;;;;;;;;;;;;20.63;58.21;101374.56;5013344;28;3134;-64
2022/10/26 11:30:14;;;;;;;;;;;;;;;20.67;58.61;101363.28;5017166;28;2923;-66
2022/10/26 11:32:42;;;;;;;;;;;;;;;20.67;58.48;101372.66;5015073;28;1779;-66
2022/10/26 11:35:17;;;;;;;;;;;;;;;20.67;58.65;101363.28;5044212;28;2875;-67
2022/10/26 11:37:54;;;;;;;;;;;;;;;20.66;59.10;101361.78;5012795;28;2920;-68
2022/10/26 11:40:40;;;;;;;;;;;;;;;20.67;59.21;101358.28;5028487;28;2812;-67
2022/10/26 11:43:10;;;;;;;;;;;;;;;20.69;58.95;101360.53;5020688;28;2903;-66
2022/10/26 11:45:37;;;;;;;;;;;;;;;20.73;59.48;101355.00;5012225;28;2719;-69
2022/10/26 11:48:13;;;;;;;;;;;;;;;20.77;59.35;101360.94;5029304;28;2741;-61
2022/10/26 11:50:40;;;;;;;;;;;;;;;20.79;59.65;101352.41;5013700;28;2936;-59
2022/10/26 11:53:13;;;;;;;;;;;;;;;20.81;60.04;101358.28;5047361;28;2910;-58
2022/10/26 11:55:39;;;;;;;;;;;;;;;20.80;60.17;101351.03;5014105;28;2773;-60
2022/10/26 11:58:07;;;;;;;;;;;;;;;20.80;60.18;101348.16;5046436;28;2548;-61
2022/10/26 12:00:43;;;;;;;;;;;;;;;20.82;60.43;101347.50;5014578;28;2884;-60
2022/10/26 12:03:10;;;;;;;;;;;;;;;20.81;60.40;101349.63;5031267;28;2852;-61
2022/10/26 12:05:37;;;;;;;;;;;;;;;20.82;60.68;101345.38;5016692;28;2731;-60
2022/10/26 12:08:04;;;;;;;;;;;;;;;20.84;60.75;101348.34;5014659;28;1680;-60
2022/10/26 12:10:31;;;;;;;;;;;;;;;20.87;60.85;101334.84;5017248;28;3066;-60
2022/10/26 12:13:08;;;;;;;;;;;;;;;20.88;60.72;101345.69;5025456;28;1672;-61
2022/10/26 12:15:41;;;;;;;;;;;;;;;20.91;60.62;101341.53;5016231;28;2900;-60
2022/10/26 12:18:31;;;;;;;;;;;;;;;20.93;60.56;101338.75;5031242;28;1790;-60
2022/10/26 12:21:17;;;;;;;;;;;;;;;20.96;60.83;101330.22;5015382;28;2824;-60
2022/10/26 12:23:53;;;;;;;;;;;;;;;20.98;60.64;101327.44;5016266;28;3084;-63
2022/10/26 12:26:23;;;;;;;;;;;;;;;21.00;60.96;101331.16;5016373;28;2947;-63
2022/10/26 12:29:01;;;;;;;;;;;;;;;21.03;60.86;101335.66;5018213;28;1729;-62
2022/10/26 12:31:30;;;;;;;;;;;;;;;21.03;60.92;101334.94;5017535;28;2746;-63
2022/10/26 12:33:57;;;;;;;;;;;;;;;21.04;61.01;101337.16;5018734;28;1535;-63
2022/10/26 12:36:43;;;;;;;;;;;;;;;21.05;60.91;101340.75;5014308;28;3105;-62
2022/10/26 12:39:28;;;;;;;;;;;;;;;21.09;60.93;101343.84;5013698;28;3275;-63
2022/10/26 12:41:55;;;;;;;;;;;;;;;21.12;60.86;101345.47;5016921;28;2922;-63
2022/10/26 12:44:38;;;;;;;;;;;;;;;21.12;61.12;101348.34;5017090;28;2738;-63
2022/10/26 12:47:04;;;;;;;;;;;;;;;21.14;60.96;101351.31;5016046;28;2944;-63
2022/10/26 12:49:50;;;;;;;;;;;;;;;21.16;60.98;101354.28;5014953;28;2888;-63
2022/10/26 12:52:17;;;;;;;;;;;;;;;21.19;60.89;101346.50;5016949;28;2920;-63
2022/10/26 12:54:56;;;;;;;;;;;;;;;21.18;61.00;101351.53;5017710;28;2826;-63
2022/10/26 12:57:24;;;;;;;;;;;;;;;21.18;61.26;101351.53;5017862;28;1679;-63